Time,TemperatureF,DewpointF,PressureIn,WindDirection,WindDirectionDegrees,WindSpeedMPH,WindSpeedGustMPH,Humidity,HourlyPrecipIn,Conditions,Clouds,dailyrainin,SoftwareType,DateUTC
2013-03-26 00:07:00,44.8,41.8,29.62,West,278,0.0,0.0,89,0.00,,,0.00,Wunderground v.1.15,2013-03-26 07:07:00,
2013-03-26 00:13:00,44.6,41.6,29.62,West,278,0.0,0.0,89,0.00,,,0.00,Wunderground v.1.15,2013-03-26 07:13:00,
2013-03-26 00:19:00,44.3,41.3,29.62,West,278,0.0,0.0,89,0.00,,,0.00,Wunderground v.1.15,2013-03-26 07:19:00,
2013-03-26 00:25:00,44.1,41.1,29.63,West,278,0.0,0.0,89,0.00,,,0.00,Wunderground v.1.15,2013-03-26 07:25:00,
2013-03-26 00:31:00,43.6,40.9,29.63,West,278,0.0,0.0,90,0.00,,,0.00,Wunderground v.1.15,2013-03-26 07:31:00,
2013-03-26 00:39:00,43.3,40.6,29.63,West,278,0.0,0.0,90,0.00,,,0.00,Wunderground v.1.15,2013-03-26 07:39:00,
2013-03-26 00:45:00,43.1,40.4,29.63,West,278,0.0,0.0,90,0.00,,,0.00,Wunderground v.1.15,2013-03-26 07:45:00,
2013-03-26 00:51:00,42.8,40.1,29.63,West,278,0.0,0.0,90,0.00,,,0.00,Wunderground v.1.15,2013-03-26 07:51:00,
2013-03-26 00:57:00,42.5,40.1,29.63,West,278,0.0,0.0,91,0.00,,,0.00,Wunderground v.1.15,2013-03-26 07:57:00,
2013-03-26 01:03:00,42.3,39.9,29.63,West,278,0.0,0.0,91,0.00,,,0.00,Wunderground v.1.15,2013-03-26 08:03:00,
2013-03-26 01:09:00,42.1,39.7,29.63,West,278,0.0,0.0,91,0.00,,,0.00,Wunderground v.1.15,2013-03-26 08:09:00,
2013-03-26 01:15:00,41.8,39.4,29.63,West,278,0.0,0.0,91,0.00,,,0.00,Wunderground v.1.15,2013-03-26 08:15:00,
2013-03-26 01:21:00,41.3,38.9,29.63,West,278,0.0,0.0,91,0.00,,,0.00,Wunderground v.1.15,2013-03-26 08:21:00,
2013-03-26 01:27:00,41.2,39.1,29.63,West,278,0.0,0.0,92,0.00,,,0.00,Wunderground v.1.15,2013-03-26 08:27:00,
2013-03-26 01:33:00,41.2,39.1,29.63,West,278,0.0,0.0,92,0.00,,,0.00,Wunderground v.1.15,2013-03-26 08:33:00,
2013-03-26 01:39:00,41.3,39.2,29.63,West,278,0.0,0.0,92,0.00,,,0.00,Wunderground v.1.15,2013-03-26 08:39:00,
2013-03-26 01:45:00,41.5,39.3,29.63,West,278,0.0,0.0,92,0.00,,,0.00,Wunderground v.1.15,2013-03-26 08:45:00,
2013-03-26 01:51:00,41.6,39.7,29.63,West,278,0.0,0.0,93,0.00,,,0.00,Wunderground v.1.15,2013-03-26 08:51:00,
2013-03-26 01:57:00,41.9,40.0,29.63,West,278,0.0,0.0,93,0.00,,,0.00,Wunderground v.1.15,2013-03-26 08:57:00,
2013-03-26 02:03:00,42.3,40.4,29.63,West,278,0.0,0.0,93,0.00,,,0.00,Wunderground v.1.15,2013-03-26 09:03:00,
2013-03-26 02:09:00,42.6,41.0,29.63,West,278,0.0,0.0,94,0.00,,,0.00,Wunderground v.1.15,2013-03-26 09:09:00,
2013-03-26 02:15:00,43.1,41.5,29.63,West,278,0.0,0.0,94,0.00,,,0.00,Wunderground v.1.15,2013-03-26 09:15:00,
2013-03-26 02:21:00,43.3,41.7,29.62,West,278,0.0,0.0,94,0.00,,,0.00,Wunderground v.1.15,2013-03-26 09:21:00,
2013-03-26 02:27:00,43.5,41.9,29.62,West,278,0.0,0.0,94,0.00,,,0.00,Wunderground v.1.15,2013-03-26 09:27:00,
2013-03-26 02:34:00,43.6,42.0,29.62,West,278,0.0,0.0,94,0.00,,,0.00,Wunderground v.1.15,2013-03-26 09:34:00,
2013-03-26 02:39:00,43.9,42.3,29.62,West,278,0.0,0.0,94,0.00,,,0.00,Wunderground v.1.15,2013-03-26 09:39:00,
2013-03-26 02:45:00,44.1,42.5,29.62,West,278,0.0,0.0,94,0.00,,,0.00,Wunderground v.1.15,2013-03-26 09:45:00,
2013-03-26 02:51:00,44.2,42.6,29.62,West,278,0.0,0.0,94,0.00,,,0.00,Wunderground v.1.15,2013-03-26 09:51:00,
2013-03-26 02:57:00,44.3,42.7,29.61,West,278,0.0,0.0,94,0.00,,,0.00,Wunderground v.1.15,2013-03-26 09:57:00,
2013-03-26 03:03:00,44.5,42.6,29.61,West,278,0.0,0.0,93,0.00,,,0.00,Wunderground v.1.15,2013-03-26 10:03:00,
2013-03-26 03:09:00,44.6,43.0,29.61,West,278,0.0,0.0,94,0.00,,,0.00,Wunderground v.1.15,2013-03-26 10:09:00,
2013-03-26 03:15:00,44.6,42.7,29.61,West,278,0.0,0.0,93,0.00,,,0.00,Wunderground v.1.15,2013-03-26 10:15:00,
2013-03-26 03:21:00,44.6,42.7,29.61,West,278,0.0,0.0,93,0.00,,,0.00,Wunderground v.1.15,2013-03-26 10:21:00,
2013-03-26 03:27:00,44.5,42.6,29.61,West,278,0.0,0.0,93,0.00,,,0.00,Wunderground v.1.15,2013-03-26 10:27:00,
2013-03-26 03:33:00,44.3,42.4,29.61,West,278,0.0,0.0,93,0.00,,,0.00,Wunderground v.1.15,2013-03-26 10:33:00,
2013-03-26 03:39:00,44.2,42.3,29.61,West,278,0.0,0.0,93,0.00,,,0.00,Wunderground v.1.15,2013-03-26 10:39:00,
2013-03-26 03:45:00,44.1,41.9,29.61,West,278,0.0,0.0,92,0.00,,,0.00,Wunderground v.1.15,2013-03-26 10:45:00,
2013-03-26 03:51:00,43.8,41.6,29.60,West,278,0.0,0.0,92,0.00,,,0.00,Wunderground v.1.15,2013-03-26 10:51:00,
2013-03-26 03:58:00,43.6,41.4,29.61,West,278,0.0,0.0,92,0.00,,,0.00,Wunderground v.1.15,2013-03-26 10:58:00,
2013-03-26 04:03:00,43.3,41.1,29.60,West,278,0.0,0.0,92,0.00,,,0.00,Wunderground v.1.15,2013-03-26 11:03:00,
2013-03-26 04:09:00,43.2,41.0,29.60,West,278,0.0,0.0,92,0.00,,,0.00,Wunderground v.1.15,2013-03-26 11:09:00,
2013-03-26 04:15:00,42.9,40.7,29.60,West,278,0.0,0.0,92,0.00,,,0.00,Wunderground v.1.15,2013-03-26 11:15:00,
2013-03-26 04:21:00,42.8,40.6,29.60,West,278,0.0,0.0,92,0.00,,,0.00,Wunderground v.1.15,2013-03-26 11:21:00,
2013-03-26 04:27:00,42.6,40.4,29.60,West,278,0.0,0.0,92,0.00,,,0.00,Wunderground v.1.15,2013-03-26 11:27:00,
2013-03-26 04:33:00,42.6,40.7,29.60,West,278,0.0,0.0,93,0.00,,,0.00,Wunderground v.1.15,2013-03-26 11:33:00,
2013-03-26 04:39:00,42.3,40.4,29.61,West,278,0.0,0.0,93,0.00,,,0.00,Wunderground v.1.15,2013-03-26 11:39:00,
2013-03-26 04:45:00,42.1,40.2,29.61,West,278,0.0,0.0,93,0.00,,,0.00,Wunderground v.1.15,2013-03-26 11:45:00,
2013-03-26 04:51:00,41.9,40.0,29.61,West,278,0.0,0.0,93,0.00,,,0.00,Wunderground v.1.15,2013-03-26 11:51:00,
2013-03-26 04:57:00,41.8,39.9,29.61,West,278,0.0,0.0,93,0.00,,,0.00,Wunderground v.1.15,2013-03-26 11:57:00,
2013-03-26 05:03:00,41.3,39.2,29.61,West,278,0.0,0.0,92,0.00,,,0.00,Wunderground v.1.15,2013-03-26 12:03:00,
2013-03-26 05:09:00,41.1,39.2,29.61,West,278,0.0,0.0,93,0.00,,,0.00,Wunderground v.1.15,2013-03-26 12:09:00,
2013-03-26 05:15:00,40.8,38.9,29.61,West,278,0.0,0.0,93,0.00,,,0.00,Wunderground v.1.15,2013-03-26 12:15:00,
2013-03-26 05:21:00,40.5,38.6,29.61,West,278,0.0,0.0,93,0.00,,,0.00,Wunderground v.1.15,2013-03-26 12:21:00,
2013-03-26 05:27:00,40.2,38.3,29.61,West,278,0.0,0.0,93,0.00,,,0.00,Wunderground v.1.15,2013-03-26 12:27:00,
2013-03-26 05:33:00,39.9,38.0,29.61,West,278,0.0,0.0,93,0.00,,,0.00,Wunderground v.1.15,2013-03-26 12:33:00,
2013-03-26 05:39:00,39.6,37.7,29.61,West,278,0.0,0.0,93,0.00,,,0.00,Wunderground v.1.15,2013-03-26 12:39:00,
2013-03-26 05:45:00,39.3,37.4,29.61,West,278,0.0,0.0,93,0.00,,,0.00,Wunderground v.1.15,2013-03-26 12:45:00,
2013-03-26 05:51:00,39.3,37.7,29.62,West,278,0.0,0.0,94,0.00,,,0.00,Wunderground v.1.15,2013-03-26 12:51:00,
2013-03-26 05:57:00,39.3,37.7,29.62,West,278,0.0,0.0,94,0.00,,,0.00,Wunderground v.1.15,2013-03-26 12:57:00,
2013-03-26 06:03:00,39.5,37.9,29.62,West,278,0.0,0.0,94,0.00,,,0.00,Wunderground v.1.15,2013-03-26 13:03:00,
2013-03-26 06:09:00,39.6,38.0,29.62,West,278,0.0,0.0,94,0.00,,,0.00,Wunderground v.1.15,2013-03-26 13:09:00,
2013-03-26 06:15:00,40.1,38.8,29.62,West,278,0.0,0.0,95,0.00,,,0.00,Wunderground v.1.15,2013-03-26 13:15:00,
2013-03-26 06:21:00,40.5,39.2,29.62,West,278,0.0,0.0,95,0.00,,,0.00,Wunderground v.1.15,2013-03-26 13:21:00,
2013-03-26 06:27:00,40.8,39.5,29.62,West,278,0.0,0.0,95,0.00,,,0.00,Wunderground v.1.15,2013-03-26 13:27:00,
2013-03-26 06:33:00,41.1,39.8,29.62,West,278,0.0,0.0,95,0.00,,,0.00,Wunderground v.1.15,2013-03-26 13:33:00,
2013-03-26 06:39:00,41.3,40.0,29.62,West,278,0.0,0.0,95,0.00,,,0.00,Wunderground v.1.15,2013-03-26 13:39:00,
2013-03-26 06:45:00,41.6,40.5,29.62,West,278,0.0,0.0,96,0.00,,,0.00,Wunderground v.1.15,2013-03-26 13:45:00,
2013-03-26 06:51:00,41.8,40.7,29.62,West,278,0.0,0.0,96,0.00,,,0.00,Wunderground v.1.15,2013-03-26 13:51:00,
2013-03-26 06:57:00,41.8,40.7,29.63,West,278,0.0,0.0,96,0.00,,,0.00,Wunderground v.1.15,2013-03-26 13:57:00,
2013-03-26 07:03:00,41.9,40.8,29.63,West,278,0.0,0.0,96,0.00,,,0.00,Wunderground v.1.15,2013-03-26 14:03:00,
2013-03-26 07:09:00,41.9,40.8,29.63,West,278,0.0,0.0,96,0.00,,,0.00,Wunderground v.1.15,2013-03-26 14:09:00,
2013-03-26 07:15:00,42.1,41.0,29.63,West,278,0.0,0.0,96,0.00,,,0.00,Wunderground v.1.15,2013-03-26 14:15:00,
2013-03-26 07:21:00,42.1,41.0,29.63,West,278,0.0,0.0,96,0.00,,,0.00,Wunderground v.1.15,2013-03-26 14:21:00,
2013-03-26 07:28:00,42.1,41.0,29.63,WNW,286,0.0,0.0,96,0.00,,,0.00,Wunderground v.1.15,2013-03-26 14:28:00,
2013-03-26 07:33:00,42.2,41.1,29.63,WNW,286,0.0,0.0,96,0.00,,,0.00,Wunderground v.1.15,2013-03-26 14:33:00,
2013-03-26 07:39:00,42.2,41.1,29.63,WNW,286,0.0,0.0,96,0.00,,,0.00,Wunderground v.1.15,2013-03-26 14:39:00,
2013-03-26 07:45:00,42.3,41.2,29.63,WNW,289,0.0,0.0,96,0.00,,,0.00,Wunderground v.1.15,2013-03-26 14:45:00,
2013-03-26 07:52:00,42.5,41.4,29.63,West,259,0.0,0.0,96,0.00,,,0.00,Wunderground v.1.15,2013-03-26 14:52:00,
2013-03-26 07:57:00,42.6,41.5,29.63,West,259,0.0,0.0,96,0.00,,,0.00,Wunderground v.1.15,2013-03-26 14:57:00,
2013-03-26 08:03:00,42.9,41.8,29.63,West,259,0.0,0.0,96,0.00,,,0.00,Wunderground v.1.15,2013-03-26 15:03:00,
2013-03-26 08:10:00,42.9,41.8,29.64,West,259,0.0,0.0,96,0.00,,,0.00,Wunderground v.1.15,2013-03-26 15:10:00,
2013-03-26 08:15:00,42.9,41.8,29.64,SSE,167,0.0,1.0,96,0.00,,,0.00,Wunderground v.1.15,2013-03-26 15:15:00,
2013-03-26 08:21:00,42.9,41.8,29.64,SSE,167,0.0,0.0,96,0.00,,,0.00,Wunderground v.1.15,2013-03-26 15:21:00,
2013-03-26 08:27:00,43.2,42.1,29.64,SSE,167,0.0,0.0,96,0.00,,,0.00,Wunderground v.1.15,2013-03-26 15:27:00,
2013-03-26 08:33:00,43.3,42.2,29.64,SSE,167,0.0,0.0,96,0.00,,,0.00,Wunderground v.1.15,2013-03-26 15:33:00,
2013-03-26 08:39:00,43.5,42.4,29.64,North,360,0.0,0.0,96,0.00,,,0.00,Wunderground v.1.15,2013-03-26 15:39:00,
2013-03-26 08:45:00,43.8,42.5,29.64,North,351,0.0,0.0,95,0.00,,,0.00,Wunderground v.1.15,2013-03-26 15:45:00,
2013-03-26 08:51:00,44.1,42.8,29.64,South,188,0.0,0.0,95,0.00,,,0.00,Wunderground v.1.15,2013-03-26 15:51:00,
2013-03-26 08:57:00,44.5,42.9,29.64,SW,218,0.0,0.0,94,0.00,,,0.00,Wunderground v.1.15,2013-03-26 15:57:00,
2013-03-26 09:03:00,44.9,42.7,29.64,West,281,1.0,2.0,92,0.00,,,0.00,Wunderground v.1.15,2013-03-26 16:03:00,
2013-03-26 09:09:00,45.5,43.3,29.64,WNW,290,1.0,2.0,92,0.00,,,0.00,Wunderground v.1.15,2013-03-26 16:09:00,
2013-03-26 09:15:00,46.0,42.9,29.64,WNW,282,0.0,3.0,89,0.00,,,0.00,Wunderground v.1.15,2013-03-26 16:15:00,
2013-03-26 09:22:00,46.7,43.0,29.64,West,269,1.0,1.0,87,0.00,,,0.00,Wunderground v.1.15,2013-03-26 16:22:00,
2013-03-26 09:27:00,47.4,43.1,29.64,WSW,256,0.0,1.0,85,0.00,,,0.01,Wunderground v.1.15,2013-03-26 16:27:00,
2013-03-26 09:33:00,48.9,43.3,29.64,West,265,0.0,0.0,81,0.00,,,0.01,Wunderground v.1.15,2013-03-26 16:33:00,
2013-03-26 09:39:00,50.4,43.8,29.64,West,265,0.0,0.0,78,0.00,,,0.01,Wunderground v.1.15,2013-03-26 16:39:00,
2013-03-26 09:45:00,51.6,43.6,29.64,NW,319,0.0,0.0,74,0.00,,,0.01,Wunderground v.1.15,2013-03-26 16:45:00,
2013-03-26 09:51:00,52.6,43.5,29.63,WSW,242,0.0,0.0,71,0.00,,,0.01,Wunderground v.1.15,2013-03-26 16:51:00,
2013-03-26 09:57:00,52.8,43.7,29.63,WSW,247,0.0,0.0,71,0.00,,,0.01,Wunderground v.1.15,2013-03-26 16:57:00,
2013-03-26 10:04:00,53.2,43.7,29.63,SE,140,0.0,3.0,70,0.00,,,0.01,Wunderground v.1.15,2013-03-26 17:04:00,
2013-03-26 10:09:00,54.1,44.2,29.63,SE,140,0.0,0.0,69,0.00,,,0.01,Wunderground v.1.15,2013-03-26 17:09:00,
2013-03-26 10:16:00,54.7,44.3,29.63,ESE,121,0.0,0.0,68,0.00,,,0.01,Wunderground v.1.15,2013-03-26 17:16:00,
2013-03-26 10:21:00,55.3,44.5,29.63,ESE,121,0.0,0.0,67,0.00,,,0.01,Wunderground v.1.15,2013-03-26 17:21:00,
2013-03-26 10:27:00,55.9,44.3,29.64,SE,129,0.0,0.0,65,0.00,,,0.01,Wunderground v.1.15,2013-03-26 17:27:00,
2013-03-26 10:33:00,56.0,44.4,29.64,West,281,1.0,2.0,65,0.00,,,0.01,Wunderground v.1.15,2013-03-26 17:33:00,
2013-03-26 10:39:00,55.3,45.7,29.64,NW,314,3.0,3.0,70,0.00,,,0.01,Wunderground v.1.15,2013-03-26 17:39:00,
2013-03-26 10:45:00,55.9,45.5,29.64,NNE,15,3.0,6.0,68,0.00,,,0.01,Wunderground v.1.15,2013-03-26 17:45:00,
2013-03-26 10:51:00,56.6,45.0,29.64,NNW,348,2.0,4.0,65,0.00,,,0.01,Wunderground v.1.15,2013-03-26 17:51:00,
2013-03-26 10:57:00,57.5,44.6,29.63,NNW,330,2.0,4.0,62,0.00,,,0.01,Wunderground v.1.15,2013-03-26 17:57:00,
2013-03-26 11:03:00,57.8,44.4,29.63,WNW,297,1.0,2.0,61,0.00,,,0.01,Wunderground v.1.15,2013-03-26 18:03:00,
2013-03-26 11:09:00,56.6,44.1,29.63,WNW,296,2.0,2.0,63,0.00,,,0.01,Wunderground v.1.15,2013-03-26 18:09:00,
2013-03-26 11:15:00,55.9,43.9,29.63,WNW,299,2.0,4.0,64,0.00,,,0.01,Wunderground v.1.15,2013-03-26 18:15:00,
2013-03-26 11:21:00,55.9,43.9,29.63,West,267,3.0,3.0,64,0.00,,,0.01,Wunderground v.1.15,2013-03-26 18:21:00,
2013-03-26 11:27:00,56.3,44.3,29.63,West,275,3.0,6.0,64,0.00,,,0.01,Wunderground v.1.15,2013-03-26 18:27:00,
2013-03-26 11:33:00,57.2,43.9,29.63,NE,50,2.0,2.0,61,0.00,,,0.01,Wunderground v.1.15,2013-03-26 18:33:00,
2013-03-26 11:39:00,57.6,44.7,29.63,SW,222,2.0,2.0,62,0.00,,,0.01,Wunderground v.1.15,2013-03-26 18:39:00,
2013-03-26 11:45:00,58.7,45.3,29.63,NW,309,3.0,5.0,61,0.00,,,0.01,Wunderground v.1.15,2013-03-26 18:45:00,
2013-03-26 11:51:00,59.2,46.6,29.63,West,262,2.0,2.0,63,0.00,,,0.01,Wunderground v.1.15,2013-03-26 18:51:00,
2013-03-26 11:58:00,60.7,46.3,29.63,WSW,246,0.0,2.0,59,0.00,,,0.01,Wunderground v.1.15,2013-03-26 18:58:00,
2013-03-26 12:03:00,61.6,47.6,29.63,WNW,296,1.0,5.0,60,0.00,,,0.01,Wunderground v.1.15,2013-03-26 19:03:00,
2013-03-26 12:09:00,60.5,46.5,29.63,West,266,3.0,6.0,60,0.00,,,0.01,Wunderground v.1.15,2013-03-26 19:09:00,
2013-03-26 12:15:00,60.4,46.0,29.63,WNW,299,3.0,6.0,59,0.00,,,0.01,Wunderground v.1.15,2013-03-26 19:15:00,
2013-03-26 12:23:00,61.2,47.2,29.63,WNW,296,2.0,7.0,60,0.00,,,0.01,Wunderground v.1.15,2013-03-26 19:23:00,
2013-03-26 12:29:00,61.6,47.6,29.63,NW,312,2.0,2.0,60,0.00,,,0.01,Wunderground v.1.15,2013-03-26 19:29:00,
2013-03-26 12:35:00,62.9,46.5,29.63,NNE,19,1.0,2.0,55,0.00,,,0.01,Wunderground v.1.15,2013-03-26 19:35:00,
2013-03-26 12:42:00,63.9,47.4,29.63,NW,311,1.0,6.0,55,0.00,,,0.01,Wunderground v.1.15,2013-03-26 19:42:00,
2013-03-26 12:47:00,63.2,47.2,29.63,North,355,2.0,6.0,56,0.00,,,0.01,Wunderground v.1.15,2013-03-26 19:47:00,
2013-03-26 12:53:00,63.1,47.1,29.62,SSW,213,2.0,3.0,56,0.00,,,0.01,Wunderground v.1.15,2013-03-26 19:53:00,
2013-03-26 12:59:00,62.7,46.8,29.62,WNW,297,3.0,3.0,56,0.00,,,0.01,Wunderground v.1.15,2013-03-26 19:59:00,
2013-03-26 13:05:00,62.9,47.0,29.62,WNW,291,2.0,4.0,56,0.00,,,0.01,Wunderground v.1.15,2013-03-26 20:05:00,
2013-03-26 13:12:00,62.7,46.8,29.62,WNW,302,3.0,3.0,56,0.00,,,0.01,Wunderground v.1.15,2013-03-26 20:12:00,
2013-03-26 13:17:00,63.2,47.2,29.62,West,266,4.0,5.0,56,0.00,,,0.01,Wunderground v.1.15,2013-03-26 20:17:00,
2013-03-26 13:23:00,63.2,47.2,29.62,NNE,19,3.0,5.0,56,0.00,,,0.01,Wunderground v.1.15,2013-03-26 20:23:00,
2013-03-26 13:29:00,64.2,47.7,29.61,WNW,287,3.0,5.0,55,0.00,,,0.01,Wunderground v.1.15,2013-03-26 20:29:00,
2013-03-26 13:35:00,65.0,47.9,29.61,WNW,296,3.0,5.0,54,0.00,,,0.01,Wunderground v.1.15,2013-03-26 20:35:00,
2013-03-26 13:41:00,64.3,47.8,29.61,WNW,290,3.0,3.0,55,0.00,,,0.01,Wunderground v.1.15,2013-03-26 20:41:00,
2013-03-26 13:47:00,64.8,48.2,29.61,SW,225,3.0,6.0,55,0.00,,,0.01,Wunderground v.1.15,2013-03-26 20:47:00,
2013-03-26 13:54:00,64.5,48.4,29.61,North,5,4.0,5.0,56,0.00,,,0.01,Wunderground v.1.15,2013-03-26 20:54:00,
2013-03-26 14:00:00,65.3,50.1,29.60,NNE,25,4.0,4.0,58,0.00,,,0.01,Wunderground v.1.15,2013-03-26 21:00:00,
2013-03-26 14:05:00,65.8,48.7,29.60,West,276,4.0,6.0,54,0.00,,,0.01,Wunderground v.1.15,2013-03-26 21:05:00,
2013-03-26 14:11:00,66.1,46.9,29.60,West,269,4.0,7.0,50,0.00,,,0.01,Wunderground v.1.15,2013-03-26 21:11:00,
2013-03-26 14:17:00,65.2,47.6,29.60,SSW,213,4.0,7.0,53,0.00,,,0.01,Wunderground v.1.15,2013-03-26 21:17:00,
2013-03-26 14:23:00,65.6,48.5,29.60,SSE,166,3.0,5.0,54,0.00,,,0.01,Wunderground v.1.15,2013-03-26 21:23:00,
2013-03-26 14:29:00,66.4,49.2,29.59,SW,232,2.0,2.0,54,0.00,,,0.01,Wunderground v.1.15,2013-03-26 21:29:00,
2013-03-26 14:36:00,65.6,48.5,29.59,West,259,4.0,6.0,54,0.00,,,0.01,Wunderground v.1.15,2013-03-26 21:36:00,
2013-03-26 14:41:00,64.7,48.2,29.59,West,275,5.0,5.0,55,0.00,,,0.01,Wunderground v.1.15,2013-03-26 21:41:00,
2013-03-26 14:48:00,64.7,47.7,29.59,SSW,198,4.0,5.0,54,0.00,,,0.01,Wunderground v.1.15,2013-03-26 21:48:00,
2013-03-26 14:53:00,64.0,48.0,29.59,WSW,256,5.0,7.0,56,0.00,,,0.01,Wunderground v.1.15,2013-03-26 21:53:00,
2013-03-26 14:59:00,64.7,47.2,29.59,South,188,5.0,5.0,53,0.00,,,0.01,Wunderground v.1.15,2013-03-26 21:59:00,
2013-03-26 15:05:00,64.8,46.2,29.59,NW,325,4.0,5.0,51,0.00,,,0.01,Wunderground v.1.15,2013-03-26 22:05:00,
2013-03-26 15:11:00,65.5,46.4,29.59,West,269,3.0,4.0,50,0.00,,,0.01,Wunderground v.1.15,2013-03-26 22:11:00,
2013-03-26 15:17:00,65.8,46.6,29.59,WSW,252,2.0,5.0,50,0.00,,,0.01,Wunderground v.1.15,2013-03-26 22:17:00,
2013-03-26 15:23:00,65.3,46.2,29.59,SW,236,4.0,6.0,50,0.00,,,0.01,Wunderground v.1.15,2013-03-26 22:23:00,
2013-03-26 15:29:00,65.3,45.1,29.59,WNW,285,4.0,10.0,48,0.00,,,0.01,Wunderground v.1.15,2013-03-26 22:29:00,
2013-03-26 15:35:00,64.8,45.2,29.59,WNW,292,5.0,10.0,49,0.00,,,0.01,Wunderground v.1.15,2013-03-26 22:35:00,
2013-03-26 15:41:00,64.5,44.4,29.59,WNW,286,5.0,11.0,48,0.00,,,0.01,Wunderground v.1.15,2013-03-26 22:41:00,
2013-03-26 15:47:00,64.2,46.2,29.59,West,259,6.0,11.0,52,0.00,,,0.01,Wunderground v.1.15,2013-03-26 22:47:00,
2013-03-26 15:53:00,64.5,45.4,29.59,West,260,6.0,10.0,50,0.00,,,0.01,Wunderground v.1.15,2013-03-26 22:53:00,
2013-03-26 15:59:00,64.3,45.3,29.59,WNW,293,5.0,5.0,50,0.00,,,0.01,Wunderground v.1.15,2013-03-26 22:59:00,
2013-03-26 16:05:00,64.5,45.4,29.59,West,279,4.0,6.0,50,0.00,,,0.01,Wunderground v.1.15,2013-03-26 23:05:00,
2013-03-26 16:11:00,65.0,44.8,29.59,West,266,4.0,6.0,48,0.00,,,0.01,Wunderground v.1.15,2013-03-26 23:11:00,
2013-03-26 16:17:00,64.3,44.7,29.59,WSW,244,5.0,8.0,49,0.00,,,0.01,Wunderground v.1.15,2013-03-26 23:17:00,
2013-03-26 16:23:00,64.5,47.0,29.59,West,261,5.0,10.0,53,0.00,,,0.01,Wunderground v.1.15,2013-03-26 23:23:00,
2013-03-26 16:29:00,65.0,45.4,29.59,SW,231,3.0,3.0,49,0.00,,,0.01,Wunderground v.1.15,2013-03-26 23:29:00,
2013-03-26 16:35:00,64.5,46.0,29.58,WSW,254,4.0,5.0,51,0.00,,,0.01,Wunderground v.1.15,2013-03-26 23:35:00,
2013-03-26 16:42:00,63.7,43.6,29.58,West,277,5.0,7.0,48,0.00,,,0.01,Wunderground v.1.15,2013-03-26 23:42:00,
2013-03-26 16:47:00,63.4,43.9,29.58,SW,228,5.0,7.0,49,0.00,,,0.01,Wunderground v.1.15,2013-03-26 23:47:00,
2013-03-26 16:53:00,63.2,44.8,29.58,SSW,206,4.0,5.0,51,0.00,,,0.01,Wunderground v.1.15,2013-03-26 23:53:00,
2013-03-26 16:59:00,63.7,44.2,29.58,SSW,207,2.0,5.0,49,0.00,,,0.01,Wunderground v.1.15,2013-03-26 23:59:00,
2013-03-26 17:05:00,63.1,44.7,29.58,West,273,2.0,5.0,51,0.00,,,0.01,Wunderground v.1.15,2013-03-27 00:05:00,
2013-03-26 17:11:00,63.5,45.6,29.58,SSW,193,2.0,3.0,52,0.00,,,0.01,Wunderground v.1.15,2013-03-27 00:11:00,
2013-03-26 17:18:00,64.2,44.6,29.58,West,267,2.0,5.0,49,0.00,,,0.01,Wunderground v.1.15,2013-03-27 00:18:00,
2013-03-26 17:23:00,63.7,45.7,29.58,WNW,298,3.0,6.0,52,0.00,,,0.01,Wunderground v.1.15,2013-03-27 00:23:00,
2013-03-26 17:29:00,62.7,44.3,29.58,West,268,4.0,6.0,51,0.00,,,0.01,Wunderground v.1.15,2013-03-27 00:29:00,
2013-03-26 17:35:00,62.3,44.9,29.58,WNW,298,4.0,6.0,53,0.00,,,0.01,Wunderground v.1.15,2013-03-27 00:35:00,
2013-03-26 17:41:00,62.3,44.4,29.58,WSW,252,3.0,6.0,52,0.00,,,0.01,Wunderground v.1.15,2013-03-27 00:41:00,
2013-03-26 17:47:00,61.6,44.3,29.58,WSW,257,4.0,7.0,53,0.00,,,0.01,Wunderground v.1.15,2013-03-27 00:47:00,
2013-03-26 17:53:00,61.5,44.7,29.58,NW,311,4.0,4.0,54,0.00,,,0.01,Wunderground v.1.15,2013-03-27 00:53:00,
2013-03-26 17:59:00,61.0,44.7,29.58,WNW,294,4.0,5.0,55,0.00,,,0.01,Wunderground v.1.15,2013-03-27 00:59:00,
2013-03-26 18:06:00,60.2,44.9,29.58,West,271,4.0,5.0,57,0.00,,,0.01,Wunderground v.1.15,2013-03-27 01:06:00,
2013-03-26 18:11:00,59.6,45.2,29.58,SSW,209,4.0,4.0,59,0.00,,,0.01,Wunderground v.1.15,2013-03-27 01:11:00,
2013-03-26 18:17:00,59.8,45.4,29.58,South,184,2.0,4.0,59,0.00,,,0.01,Wunderground v.1.15,2013-03-27 01:17:00,
2013-03-26 18:23:00,59.9,45.1,29.58,South,183,0.0,1.0,58,0.00,,,0.01,Wunderground v.1.15,2013-03-27 01:23:00,
2013-03-26 18:29:00,60.4,45.5,29.58,WSW,240,1.0,1.0,58,0.00,,,0.01,Wunderground v.1.15,2013-03-27 01:29:00,
2013-03-26 18:35:00,60.2,45.4,29.58,WSW,253,2.0,6.0,58,0.00,,,0.01,Wunderground v.1.15,2013-03-27 01:35:00,
2013-03-26 18:41:00,59.3,45.4,29.58,WSW,257,3.0,3.0,60,0.00,,,0.01,Wunderground v.1.15,2013-03-27 01:41:00,
2013-03-26 18:48:00,58.9,45.5,29.58,SSW,212,1.0,3.0,61,0.00,,,0.01,Wunderground v.1.15,2013-03-27 01:48:00,
2013-03-26 18:54:00,58.9,45.0,29.58,WSW,244,1.0,3.0,60,0.00,,,0.01,Wunderground v.1.15,2013-03-27 01:54:00,
2013-03-26 19:00:00,57.8,45.3,29.58,West,271,2.0,2.0,63,0.00,,,0.01,Wunderground v.1.15,2013-03-27 02:00:00,
2013-03-26 19:06:00,56.7,44.7,29.58,West,263,3.0,3.0,64,0.00,,,0.01,Wunderground v.1.15,2013-03-27 02:06:00,
2013-03-26 19:11:00,56.0,44.4,29.58,SW,236,2.0,2.0,65,0.00,,,0.01,Wunderground v.1.15,2013-03-27 02:11:00,
2013-03-26 19:17:00,55.4,44.6,29.58,West,280,1.0,2.0,67,0.00,,,0.01,Wunderground v.1.15,2013-03-27 02:17:00,
2013-03-26 19:24:00,55.0,44.2,29.59,West,264,1.0,3.0,67,0.00,,,0.01,Wunderground v.1.15,2013-03-27 02:24:00,
2013-03-26 19:29:00,54.5,44.2,29.59,West,267,1.0,1.0,68,0.00,,,0.01,Wunderground v.1.15,2013-03-27 02:29:00,
2013-03-26 19:35:00,53.9,44.3,29.59,SW,236,2.0,4.0,70,0.00,,,0.01,Wunderground v.1.15,2013-03-27 02:35:00,
2013-03-26 19:41:00,53.5,44.0,29.59,West,267,2.0,2.0,70,0.00,,,0.01,Wunderground v.1.15,2013-03-27 02:41:00,
2013-03-26 19:47:00,53.1,43.9,29.59,West,267,1.0,2.0,71,0.00,,,0.01,Wunderground v.1.15,2013-03-27 02:47:00,
2013-03-26 19:53:00,52.6,44.2,29.60,West,267,0.0,0.0,73,0.00,,,0.01,Wunderground v.1.15,2013-03-27 02:53:00,
2013-03-26 19:59:00,52.5,44.1,29.59,West,267,0.0,0.0,73,0.00,,,0.01,Wunderground v.1.15,2013-03-27 02:59:00,
2013-03-26 20:05:00,52.2,44.2,29.59,West,267,0.0,0.0,74,0.00,,,0.01,Wunderground v.1.15,2013-03-27 03:05:00,
2013-03-26 20:11:00,51.7,44.0,29.59,West,267,0.0,0.0,75,0.00,,,0.01,Wunderground v.1.15,2013-03-27 03:11:00,
2013-03-26 20:12:00,49.5,43.6,29.61,WSW,257,2.0,3.0,80,0.00,,,0.01,Wunderground v.1.15,2013-03-27 03:12:00,
2013-03-26 20:14:00,49.5,43.6,29.61,NW,305,2.0,3.0,80,0.00,,,0.01,Wunderground v.1.15,2013-03-27 03:14:00,
2013-03-26 20:16:00,49.5,43.6,29.61,WSW,248,2.0,3.0,80,0.00,,,0.01,Wunderground v.1.15,2013-03-27 03:16:00,
2013-03-26 20:17:00,51.4,44.1,29.60,West,267,0.0,0.0,76,0.00,,,0.01,Wunderground v.1.15,2013-03-27 03:17:00,
2013-03-26 20:18:00,49.4,43.5,29.61,West,277,2.0,3.0,80,0.00,,,0.01,Wunderground v.1.15,2013-03-27 03:18:00,
2013-03-26 20:20:00,49.4,43.5,29.61,WNW,287,2.0,2.0,80,0.00,,,0.01,Wunderground v.1.15,2013-03-27 03:20:00,
2013-03-26 20:22:00,49.4,43.8,29.61,WNW,288,2.0,2.0,81,0.00,,,0.01,Wunderground v.1.15,2013-03-27 03:22:00,
2013-03-26 20:23:00,51.0,44.0,29.60,West,267,0.0,0.0,77,0.00,,,0.01,Wunderground v.1.15,2013-03-27 03:23:00,
2013-03-26 20:24:00,49.2,43.6,29.61,WNW,286,2.0,2.0,81,0.00,,,0.01,Wunderground v.1.15,2013-03-27 03:24:00,
2013-03-26 20:26:00,49.2,43.6,29.61,West,274,2.0,2.0,81,0.00,,,0.01,Wunderground v.1.15,2013-03-27 03:26:00,
2013-03-26 20:28:00,49.2,43.3,29.61,SW,234,3.0,5.0,80,0.00,,,0.01,Wunderground v.1.15,2013-03-27 03:28:00,
2013-03-26 20:29:00,50.5,43.9,29.60,West,267,0.0,0.0,78,0.00,,,0.01,Wunderground v.1.15,2013-03-27 03:29:00,
2013-03-26 20:30:00,49.2,43.3,29.62,West,279,3.0,3.0,80,0.00,,,0.01,Wunderground v.1.15,2013-03-27 03:30:00,
2013-03-26 20:32:00,49.1,43.2,29.62,WSW,240,3.0,3.0,80,0.00,,,0.01,Wunderground v.1.15,2013-03-27 03:32:00,
2013-03-26 20:34:00,49.1,43.2,29.62,SW,236,2.0,3.0,80,0.00,,,0.01,Wunderground v.1.15,2013-03-27 03:34:00,
2013-03-26 20:35:00,50.4,43.8,29.60,West,267,0.0,0.0,78,0.00,,,0.01,Wunderground v.1.15,2013-03-27 03:35:00,
2013-03-26 20:36:00,49.1,43.2,29.62,West,275,2.0,3.0,80,0.00,,,0.01,Wunderground v.1.15,2013-03-27 03:36:00,
2013-03-26 20:38:00,49.1,43.5,29.62,WSW,246,2.0,3.0,81,0.00,,,0.01,Wunderground v.1.15,2013-03-27 03:38:00,
2013-03-26 20:40:00,48.9,43.3,29.62,West,263,2.0,2.0,81,0.00,,,0.01,Wunderground v.1.15,2013-03-27 03:40:00,
2013-03-26 20:41:00,50.1,43.5,29.60,West,277,0.0,2.0,78,0.00,,,0.01,Wunderground v.1.15,2013-03-27 03:41:00,
2013-03-26 20:42:00,48.9,43.3,29.62,WSW,247,2.0,5.0,81,0.00,,,0.01,Wunderground v.1.15,2013-03-27 03:42:00,
2013-03-26 20:44:00,48.9,43.3,29.62,SW,220,2.0,5.0,81,0.00,,,0.01,Wunderground v.1.15,2013-03-27 03:44:00,
2013-03-26 20:46:00,48.9,43.6,29.62,WSW,255,2.0,5.0,82,0.00,,,0.01,Wunderground v.1.15,2013-03-27 03:46:00,
2013-03-26 20:47:00,49.8,43.5,29.60,WNW,282,1.0,2.0,79,0.00,,,0.01,Wunderground v.1.15,2013-03-27 03:47:00,
2013-03-26 20:48:00,48.8,43.5,29.62,West,267,3.0,5.0,82,0.00,,,0.01,Wunderground v.1.15,2013-03-27 03:48:00,
2013-03-26 20:50:00,48.8,43.5,29.62,West,267,2.0,2.0,82,0.00,,,0.01,Wunderground v.1.15,2013-03-27 03:50:00,
2013-03-26 20:52:00,48.8,43.5,29.62,West,271,2.0,2.0,82,0.00,,,0.01,Wunderground v.1.15,2013-03-27 03:52:00,
2013-03-26 20:53:00,49.5,43.6,29.61,WNW,282,1.0,4.0,80,0.00,,,0.01,Wunderground v.1.15,2013-03-27 03:53:00,
2013-03-26 20:54:00,48.6,43.4,29.62,West,271,2.0,2.0,82,0.00,,,0.01,Wunderground v.1.15,2013-03-27 03:54:00,
2013-03-26 20:56:00,48.6,43.4,29.62,West,271,1.0,2.0,82,0.00,,,0.01,Wunderground v.1.15,2013-03-27 03:56:00,
2013-03-26 20:58:00,48.5,43.3,29.62,West,271,0.0,2.0,82,0.00,,,0.01,Wunderground v.1.15,2013-03-27 03:58:00,
2013-03-26 21:00:00,49.5,43.6,29.61,West,279,2.0,2.0,80,0.00,,,0.01,Wunderground v.1.15,2013-03-27 04:00:00,
2013-03-26 21:02:00,48.3,43.1,29.62,West,271,0.0,0.0,82,0.00,,,0.01,Wunderground v.1.15,2013-03-27 04:02:00,
2013-03-26 21:04:00,48.2,43.0,29.62,West,271,0.0,0.0,82,0.00,,,0.01,Wunderground v.1.15,2013-03-27 04:04:00,
2013-03-26 21:06:00,48.2,43.0,29.62,West,271,0.0,0.0,82,0.00,,,0.01,Wunderground v.1.15,2013-03-27 04:06:00,
2013-03-26 21:08:00,48.0,42.8,29.62,West,271,0.0,0.0,82,0.00,,,0.01,Wunderground v.1.15,2013-03-27 04:08:00,
2013-03-26 21:10:00,48.0,42.8,29.62,West,271,0.0,0.0,82,0.00,,,0.01,Wunderground v.1.15,2013-03-27 04:10:00,
2013-03-26 21:12:00,47.9,43.0,29.62,West,271,0.0,0.0,83,0.00,,,0.01,Wunderground v.1.15,2013-03-27 04:12:00,
2013-03-26 21:14:00,47.7,42.8,29.62,West,271,0.0,0.0,83,0.00,,,0.01,Wunderground v.1.15,2013-03-27 04:14:00,
2013-03-26 21:16:00,47.6,42.7,29.62,West,271,0.0,0.0,83,0.00,,,0.01,Wunderground v.1.15,2013-03-27 04:16:00,
2013-03-26 21:18:00,47.4,42.5,29.62,West,271,0.0,0.0,83,0.00,,,0.01,Wunderground v.1.15,2013-03-27 04:18:00,
2013-03-26 21:20:00,47.3,42.4,29.62,West,271,0.0,0.0,83,0.00,,,0.01,Wunderground v.1.15,2013-03-27 04:20:00,
2013-03-26 21:22:00,47.1,42.5,29.62,West,271,0.0,0.0,84,0.00,,,0.01,Wunderground v.1.15,2013-03-27 04:22:00,
2013-03-26 21:24:00,47.0,42.4,29.62,West,271,0.0,0.0,84,0.00,,,0.01,Wunderground v.1.15,2013-03-27 04:24:00,
2013-03-26 21:26:00,47.0,42.4,29.62,West,271,0.0,0.0,84,0.00,,,0.01,Wunderground v.1.15,2013-03-27 04:26:00,
2013-03-26 21:28:00,46.8,42.2,29.62,West,271,0.0,0.0,84,0.00,,,0.01,Wunderground v.1.15,2013-03-27 04:28:00,
2013-03-26 21:30:00,46.7,42.1,29.62,West,271,0.0,0.0,84,0.00,,,0.01,Wunderground v.1.15,2013-03-27 04:30:00,
2013-03-26 21:32:00,46.7,42.1,29.62,West,271,0.0,0.0,84,0.00,,,0.01,Wunderground v.1.15,2013-03-27 04:32:00,
2013-03-26 21:34:00,46.5,41.9,29.62,West,271,0.0,0.0,84,0.00,,,0.01,Wunderground v.1.15,2013-03-27 04:34:00,
2013-03-26 21:36:00,46.4,41.8,29.62,West,271,0.0,0.0,84,0.00,,,0.01,Wunderground v.1.15,2013-03-27 04:36:00,
2013-03-26 21:38:00,46.4,41.8,29.62,West,271,0.0,0.0,84,0.00,,,0.01,Wunderground v.1.15,2013-03-27 04:38:00,
2013-03-26 21:40:00,46.2,41.9,29.62,West,271,0.0,0.0,85,0.00,,,0.01,Wunderground v.1.15,2013-03-27 04:40:00,
2013-03-26 21:42:00,46.2,41.9,29.62,West,271,0.0,0.0,85,0.00,,,0.01,Wunderground v.1.15,2013-03-27 04:42:00,
2013-03-26 21:44:00,46.1,41.8,29.62,West,271,0.0,0.0,85,0.00,,,0.01,Wunderground v.1.15,2013-03-27 04:44:00,
2013-03-26 21:46:00,46.0,41.7,29.62,West,271,0.0,0.0,85,0.00,,,0.01,Wunderground v.1.15,2013-03-27 04:46:00,
2013-03-26 21:48:00,45.8,41.5,29.62,West,271,0.0,0.0,85,0.00,,,0.01,Wunderground v.1.15,2013-03-27 04:48:00,
2013-03-26 21:50:00,45.7,41.4,29.62,West,271,0.0,0.0,85,0.00,,,0.01,Wunderground v.1.15,2013-03-27 04:50:00,
2013-03-26 21:52:00,45.7,41.4,29.62,West,271,0.0,0.0,85,0.00,,,0.01,Wunderground v.1.15,2013-03-27 04:52:00,
2013-03-26 21:54:00,45.5,41.3,29.62,West,271,0.0,0.0,85,0.00,,,0.01,Wunderground v.1.15,2013-03-27 04:54:00,
2013-03-26 21:56:00,45.4,41.2,29.62,West,271,0.0,0.0,85,0.00,,,0.01,Wunderground v.1.15,2013-03-27 04:56:00,
2013-03-26 22:00:00,45.1,41.2,29.62,West,271,0.0,0.0,86,0.00,,,0.01,Wunderground v.1.15,2013-03-27 05:00:00,
2013-03-26 22:02:00,44.9,41.0,29.62,West,271,0.0,0.0,86,0.00,,,0.01,Wunderground v.1.15,2013-03-27 05:02:00,
2013-03-26 22:04:00,44.8,40.9,29.62,West,271,0.0,0.0,86,0.00,,,0.01,Wunderground v.1.15,2013-03-27 05:04:00,
2013-03-26 22:06:00,44.8,40.9,29.61,West,271,0.0,0.0,86,0.00,,,0.01,Wunderground v.1.15,2013-03-27 05:06:00,
2013-03-26 22:08:00,44.6,40.7,29.62,West,271,0.0,0.0,86,0.00,,,0.01,Wunderground v.1.15,2013-03-27 05:08:00,
2013-03-26 22:10:00,44.5,40.6,29.62,West,271,0.0,0.0,86,0.00,,,0.01,Wunderground v.1.15,2013-03-27 05:10:00,
2013-03-26 22:16:00,44.2,40.6,29.61,West,271,0.0,0.0,87,0.00,,,0.01,Wunderground v.1.15,2013-03-27 05:16:00,
2013-03-26 22:20:00,44.1,40.8,29.62,West,271,0.0,0.0,88,0.00,,,0.01,Wunderground v.1.15,2013-03-27 05:20:00,
2013-03-26 22:22:00,43.9,40.6,29.61,West,271,0.0,0.0,88,0.00,,,0.01,Wunderground v.1.15,2013-03-27 05:22:00,
2013-03-26 22:24:00,43.9,40.6,29.61,West,271,0.0,0.0,88,0.00,,,0.01,Wunderground v.1.15,2013-03-27 05:24:00,
2013-03-26 22:26:00,43.8,40.5,29.61,West,271,0.0,0.0,88,0.00,,,0.01,Wunderground v.1.15,2013-03-27 05:26:00,
2013-03-26 22:32:00,43.6,40.3,29.62,West,271,0.0,0.0,88,0.00,,,0.01,Wunderground v.1.15,2013-03-27 05:32:00,
2013-03-26 22:34:00,43.6,40.3,29.61,West,271,0.0,0.0,88,0.00,,,0.01,Wunderground v.1.15,2013-03-27 05:34:00,
2013-03-26 22:36:00,43.5,40.5,29.61,West,271,0.0,0.0,89,0.00,,,0.01,Wunderground v.1.15,2013-03-27 05:36:00,
2013-03-26 22:38:00,43.5,40.5,29.61,West,271,0.0,0.0,89,0.00,,,0.01,Wunderground v.1.15,2013-03-27 05:38:00,
2013-03-26 22:40:00,43.3,40.0,29.61,West,271,0.0,0.0,88,0.00,,,0.01,Wunderground v.1.15,2013-03-27 05:40:00,
2013-03-26 22:42:00,43.3,40.0,29.61,West,271,0.0,0.0,88,0.00,,,0.01,Wunderground v.1.15,2013-03-27 05:42:00,
2013-03-26 22:47:00,45.1,41.2,29.62,West,271,0.0,0.0,86,0.00,,,0.01,Wunderground v.1.15,2013-03-27 05:47:00,
2013-03-26 22:48:00,43.1,40.1,29.61,West,271,0.0,0.0,89,0.00,,,0.01,Wunderground v.1.15,2013-03-27 05:48:00,
2013-03-26 22:50:00,43.1,40.1,29.61,West,271,0.0,0.0,89,0.00,,,0.01,Wunderground v.1.15,2013-03-27 05:50:00,
2013-03-26 22:54:00,43.1,40.1,29.61,West,271,0.0,0.0,89,0.00,,,0.01,Wunderground v.1.15,2013-03-27 05:54:00,
2013-03-26 22:58:00,43.1,40.1,29.61,West,271,0.0,0.0,89,0.00,,,0.01,Wunderground v.1.15,2013-03-27 05:58:00,
2013-03-26 23:00:00,43.1,40.1,29.61,West,271,0.0,0.0,89,0.00,,,0.01,Wunderground v.1.15,2013-03-27 06:00:00,
2013-03-26 23:02:00,44.3,40.4,29.62,West,271,0.0,0.0,86,0.00,,,0.01,Wunderground v.1.15,2013-03-27 06:02:00,
2013-03-26 23:04:00,42.9,39.9,29.61,West,271,0.0,0.0,89,0.00,,,0.01,Wunderground v.1.15,2013-03-27 06:04:00,
2013-03-26 23:07:00,44.1,40.8,29.61,West,271,0.0,0.0,88,0.00,,,0.01,Wunderground v.1.15,2013-03-27 06:07:00,
2013-03-26 23:08:00,42.9,40.2,29.61,West,271,0.0,0.0,90,0.00,,,0.01,Wunderground v.1.15,2013-03-27 06:08:00,
2013-03-26 23:12:00,42.8,40.1,29.61,West,271,0.0,0.0,90,0.00,,,0.00,Wunderground v.1.15,2013-03-27 06:12:00,
2013-03-26 23:17:00,43.8,40.5,29.61,West,271,0.0,0.0,88,0.00,,,0.01,Wunderground v.1.15,2013-03-27 06:17:00,
2013-03-26 23:20:00,42.5,39.8,29.61,West,271,0.0,0.0,90,0.00,,,0.00,Wunderground v.1.15,2013-03-27 06:20:00,
2013-03-26 23:24:00,42.3,39.6,29.61,West,271,0.0,0.0,90,0.00,,,0.00,Wunderground v.1.15,2013-03-27 06:24:00,
2013-03-26 23:28:00,42.3,39.6,29.61,West,271,0.0,0.0,90,0.00,,,0.00,Wunderground v.1.15,2013-03-27 06:28:00,
2013-03-26 23:33:00,43.2,39.9,29.61,West,271,0.0,0.0,88,0.00,,,0.01,Wunderground v.1.15,2013-03-27 06:33:00,
2013-03-26 23:34:00,42.2,39.5,29.62,West,271,0.0,0.0,90,0.00,,,0.00,Wunderground v.1.15,2013-03-27 06:34:00,
2013-03-26 23:36:00,42.2,39.5,29.62,West,271,0.0,0.0,90,0.00,,,0.00,Wunderground v.1.15,2013-03-27 06:36:00,
2013-03-26 23:42:00,43.1,40.1,29.61,West,271,0.0,0.0,89,0.00,,,0.01,Wunderground v.1.15,2013-03-27 06:42:00,
2013-03-26 23:55:00,42.9,40.2,29.61,West,271,0.0,0.0,90,0.00,,,0.01,Wunderground v.1.15,2013-03-27 06:55:00,